Terminal Aerodrome Forecast
Issued by NWS Grand Forks, ND

Home | Current Version | Previous Version | Text Only | Print | Product List | Glossary Off
Versions: 1 2 3 4 5 6 7 8 9 10 11 12 13 14 15

586
FTUS43 KFGF 201720
TAFGFK
TAF
KGFK 201720Z 2018/2118 15013KT 1 1/2SM BR OVC003
      TEMPO 2019/2022 5SM -DZ BR OVC025
     FM211200 12007KT 4SM BR OVC003=

USA.gov is the U.S. government's official web portal to all federal, state and local government web resources and services.